• Join FlightAware (Why Join?)
  • Login
  • US Flag 
10:56AM EST


 

Airport Tracker/Info


-or-


 

Live Flight TrackerFlight Track Log ✈ BJS542 ✈ 26-Apr-2013 ✈ KBTV - KMMU

Flight Track Log - Related Links

Times and Time Zones

All times are in EDT time to prevent confusion due to time zone crossing. See the BJS542 flight status page for this flight to view local times or setup timezone preferences in your user account.

Time Position Orientation Groundspeed Altitude Reporting Facility
EDT Latitude Longitude Course Direction KTS MPH feet Rate Location/Type
03:00PM 44.5356 -73.2614 302° West 200 230 9,100  Level Boston Center
03:01PM 44.4950 -73.3917 246° West 268 308 13,400 3,840 Climbing Boston Center
03:02PM 44.4292 -73.5128 233° Southwest 327 376 16,800 3,600 Climbing Boston Center
03:03PM 44.3511 -73.6100 222° Southwest 369 425 20,700 3,480 Climbing Boston Center
03:04PM 43.9049 -73.3542 194° South  Level FlightAware Approximate
03:04PM 44.2406 -73.6253 186° South 369 425 23,800  Level Boston Center
03:05PM 44.1217 -73.6375 184° South 394 453 26,700 2,580 Climbing Boston Center
03:06PM 44.0111 -73.6525 186° South 437 503 29,000 1,500 Climbing Boston Center
03:07PM 43.8839 -73.6672 185° South 460 529 29,700 -300 Climbing Boston Center
03:08PM 43.7544 -73.6847 186° South 473 544 28,500 -1,140 Descending Boston Center
03:09PM 43.6231 -73.6992 185° South 473 544 27,500 -1,020 Descending Boston Center
03:10PM 43.4917 -73.7136 185° South 473 544 26,500 -1,020 Descending Boston Center
03:11PM 43.3642 -73.7308 186° South 473 544 25,500 -1,440 Descending Boston Center
03:12PM 43.2267 -73.7481 185° South 473 544 23,700 -1,440 Descending Boston Center
03:13PM 43.1075 -73.7653 186° South 452 520 22,700 -1,020 Descending Boston Center
03:14PM 42.9844 -73.7797 185° South 446 513 21,700 -1,020 Descending Boston Center
03:15PM 42.8675 -73.7914 184° South 441 507 20,700 -1,020 Descending Boston Center
03:16PM 42.7506 -73.8114 187° South 436 502 19,700 -1,020 Descending Boston Center
03:17PM 42.6517 -73.8797 207° Southwest 404 465 18,700 -780 Descending Boston Center
03:18PM 42.5550 -73.9481 208° Southwest 404 465 18,200 -720 Descending Boston Center
03:19PM 42.4667 -74.0133 209° Southwest 399 459 17,300 -1,020 Descending Boston Center
03:20PM 42.3614 -74.0894 208° Southwest 399 459 16,200 -600 Descending Boston Center
03:21PM 42.2686 -74.1572 208° Southwest 394 453 16,100 -60 Descending Boston Center
03:22PM 42.1842 -74.2222 210° Southwest 388 447 16,100  Level Boston Center
03:23PM 42.0808 -74.2947 208° Southwest 393 452 16,100 -840 Level Boston Center
03:24PM 41.9842 -74.3506 203° Southwest 387 445 14,500 -1,800 Descending Boston Center
03:25PM 41.8936 -74.4036 204° Southwest 373 429 12,600 -1,860 Descending Boston Center
03:26PM 41.8072 -74.4481 201° Southwest 340 391 10,800 -1,680 Descending Boston Center
03:27PM 41.7336 -74.4931 205° Southwest 309 356 9,300 -1,560 Descending Boston Center
03:28PM 41.6642 -74.5325 203° Southwest 285 328 7,700 -1,380 Descending Boston Center
03:29PM 41.5908 -74.5553 193° South 277 319 6,600 -900 Descending Boston Center
03:30PM 41.5133 -74.5719 189° South 278 320 6,000 -300 Descending Boston Center
03:31PM 41.4381 -74.5889 190° South 278 320 6,000  Level Boston Center
03:32PM 41.3667 -74.6167 196° South 273 314 6,000  Level New York TRACON
03:33PM 41.2833 -74.6333 189° South 279 321 6,000 -600 Level New York TRACON
03:34PM 41.2167 -74.6667 201° Southwest 269 310 4,900 -1,080 Descending New York TRACON
03:35PM 41.1500 -74.6833 191° South 272 313 3,900 -480 Descending New York TRACON
03:36PM 41.0833 -74.6500 159° South 273 314 4,000  Climbing New York TRACON
03:37PM 41.0167 -74.6000 150° Southeast 259 298 3,900 -540 Descending New York TRACON
03:38PM 40.9667 -74.5500 143° Southeast 241 277 3,000 -480 Descending New York TRACON
03:39PM 40.9000 -74.5000 150° Southeast 235 270 3,000 -420 Level New York TRACON
03:40PM 40.8500 -74.4833 166° South 224 258 2,200 -540 Descending New York TRACON
03:41PM 40.8000 -74.5000 194° South 151 174 2,000 -120 Descending New York TRACON
03:42PM 40.7667 -74.5333 217° Southwest 150 173 2,000  Level New York TRACON